createdAt,value
2023-01-17T00:01:29.454Z,97522.53
2023-01-17T00:04:14.563Z,97512.75
2023-01-17T00:06:59.339Z,97521.72
2023-01-17T00:09:44.341Z,97519.06
2023-01-17T00:12:10.855Z,97518.88
2023-01-17T00:14:37.281Z,97492.13
2023-01-17T00:17:03.722Z,97504.63
2023-01-17T00:19:48.739Z,97516.84
2023-01-17T00:22:52.165Z,97493.19
2023-01-17T00:25:51.255Z,97498.72
2023-01-17T00:28:18.654Z,97501.78
2023-01-17T00:30:45.799Z,97505.44
2023-01-17T00:33:12.585Z,97504.63
2023-01-17T00:35:39.108Z,97497.69
2023-01-17T00:38:12.881Z,97492.78
2023-01-17T00:40:42.040Z,97504.00
2023-01-17T00:43:28.915Z,97502.19
2023-01-17T00:46:17.219Z,97497.25
2023-01-17T00:49:02.546Z,97496.63
2023-01-17T00:51:49.970Z,97496.81
2023-01-17T00:54:35.253Z,97486.63
2023-01-17T00:57:21.701Z,97496.19
2023-01-17T01:00:10.877Z,97470.44
2023-01-17T01:02:56.693Z,97488.88
2023-01-17T01:05:42.006Z,97467.16
2023-01-17T01:08:41.868Z,97486.22
2023-01-17T01:11:33.653Z,97479.66
2023-01-17T01:14:19.943Z,97485.97
2023-01-17T01:17:05.312Z,97480.59
2023-01-17T01:19:50.315Z,97477.56
2023-01-17T01:22:35.155Z,97477.38
2023-01-17T01:25:20.260Z,97486.31
2023-01-17T01:28:05.500Z,97485.13
2023-01-17T01:30:50.864Z,97489.97
2023-01-17T01:33:20.341Z,97492.63
2023-01-17T01:35:49.845Z,97490.41
2023-01-17T01:38:17.733Z,97473.81
2023-01-17T01:40:46.803Z,97483.13
2023-01-17T01:43:15.361Z,97478.66
2023-01-17T01:45:47.077Z,97480.28
2023-01-17T01:48:36.336Z,97478.91
2023-01-17T01:51:11.569Z,97473.19
2023-01-17T01:53:42.728Z,97471.97
2023-01-17T01:56:12.747Z,97474.81
2023-01-17T01:58:43.830Z,97469.34
2023-01-17T02:01:10.527Z,97471.34
2023-01-17T02:03:40.042Z,97457.31
2023-01-17T02:06:38.302Z,97470.75
2023-01-17T02:09:08.588Z,97471.16
2023-01-17T02:11:36.320Z,97470.19
2023-01-17T02:14:02.744Z,97473.00
2023-01-17T02:16:47.219Z,97473.56
2023-01-17T02:19:53.334Z,97467.16
2023-01-17T02:22:41.496Z,97471.44
2023-01-17T02:25:26.192Z,97467.59
2023-01-17T02:28:11.131Z,97467.59
2023-01-17T02:30:42.326Z,97442.84
2023-01-17T02:33:17.459Z,97469.41
2023-01-17T02:35:51.253Z,97470.00
2023-01-17T02:38:31.220Z,97468.38
2023-01-17T02:41:07.701Z,97468.59
2023-01-17T02:43:35.964Z,97475.09
2023-01-17T02:46:02.620Z,97463.31
2023-01-17T02:48:32.162Z,97464.53
2023-01-17T02:51:10.826Z,97469.91
2023-01-17T02:54:14.867Z,97466.88
2023-01-17T02:57:03.075Z,97463.41
2023-01-17T03:00:11.312Z,97457.31
2023-01-17T03:02:57.494Z,97464.97
2023-01-17T03:05:32.306Z,97462.78
2023-01-17T03:08:01.177Z,97463.13
2023-01-17T03:10:28.714Z,97474.19
2023-01-17T03:12:59.701Z,97468.72
2023-01-17T03:15:26.601Z,97471.53
2023-01-17T03:17:58.434Z,97458.31
2023-01-17T03:20:24.842Z,97466.69
2023-01-17T03:22:51.369Z,97457.13
2023-01-17T03:25:17.828Z,97463.81
2023-01-17T03:27:44.639Z,97463.63
2023-01-17T03:30:11.918Z,97467.53
2023-01-17T03:32:38.352Z,97459.97
2023-01-17T03:35:08.322Z,97469.34
2023-01-17T03:37:34.773Z,97463.88
2023-01-17T03:40:01.171Z,97468.16
2023-01-17T03:42:27.616Z,97469.16
2023-01-17T03:44:54.056Z,97475.09
2023-01-17T03:47:20.424Z,97471.25
2023-01-17T03:49:46.859Z,97480.63
2023-01-17T03:52:13.444Z,97462.63
2023-01-17T03:54:39.905Z,97488.34
2023-01-17T03:57:06.398Z,97481.22
2023-01-17T03:59:33.983Z,97485.13
2023-01-17T04:02:01.014Z,97489.59
2023-01-17T04:04:27.470Z,97480.44
2023-01-17T04:06:54.591Z,97475.78
2023-01-17T04:09:20.978Z,97476.16
2023-01-17T04:11:50.805Z,97456.59
2023-01-17T04:14:17.657Z,97486.50
2023-01-17T04:16:44.462Z,97482.63
2023-01-17T04:19:13.444Z,97487.88
2023-01-17T04:21:39.888Z,97481.13
2023-01-17T04:24:06.660Z,97474.00
2023-01-17T04:26:33.047Z,97487.97
2023-01-17T04:28:59.657Z,97480.94
2023-01-17T04:31:26.251Z,97494.41
2023-01-17T04:33:52.829Z,97496.63
2023-01-17T04:36:19.297Z,97474.84
2023-01-17T04:38:45.765Z,97492.88
2023-01-17T04:41:12.410Z,97504.66
2023-01-17T04:43:38.784Z,97505.59
2023-01-17T04:46:09.876Z,97509.22
2023-01-17T04:48:36.754Z,97505.09
2023-01-17T04:51:05.011Z,97502.78
2023-01-17T04:53:31.869Z,97513.59
2023-01-17T04:55:58.429Z,97499.63
2023-01-17T04:58:24.970Z,97511.72
2023-01-17T05:00:51.743Z,97524.03
2023-01-17T05:03:18.986Z,97524.66
2023-01-17T05:05:45.543Z,97512.84
2023-01-17T05:08:12.186Z,97521.16
2023-01-17T05:10:38.682Z,97527.31
2023-01-17T05:13:05.291Z,97535.06
2023-01-17T05:15:32.156Z,97522.97
2023-01-17T05:17:58.569Z,97523.84
2023-01-17T05:20:27.031Z,97525.31
2023-01-17T05:22:55.469Z,97533.06
2023-01-17T05:25:23.691Z,97539.78
2023-01-17T05:27:50.243Z,97534.91
2023-01-17T05:30:18.285Z,97539.03
2023-01-17T05:32:48.628Z,97547.22
2023-01-17T05:35:16.555Z,97551.13
2023-01-17T05:37:48.980Z,97559.06
2023-01-17T05:40:20.367Z,97558.69
2023-01-17T05:42:52.097Z,97574.97
2023-01-17T05:45:20.503Z,97566.16
2023-01-17T05:47:49.788Z,97574.59
2023-01-17T05:50:18.889Z,97591.28
2023-01-17T05:52:56.456Z,97610.25
2023-01-17T05:55:23.689Z,97607.97
2023-01-17T05:57:50.276Z,97616.09
2023-01-17T06:00:17.516Z,97621.75
2023-01-17T06:02:45.295Z,97626.97
2023-01-17T06:05:12.119Z,97643.66
2023-01-17T06:07:39.321Z,97642.38
2023-01-17T06:10:06.456Z,97631.41
2023-01-17T06:12:32.891Z,97656.16
2023-01-17T06:14:59.464Z,97647.63
2023-01-17T06:17:25.870Z,97662.94
2023-01-17T06:19:52.316Z,97682.44
2023-01-17T06:22:18.724Z,97690.53
2023-01-17T06:24:45.394Z,97679.34
2023-01-17T06:27:11.924Z,97705.34
2023-01-17T06:29:38.401Z,97718.72
2023-01-17T06:32:05.209Z,97714.69
2023-01-17T06:34:31.641Z,97706.53
2023-01-17T06:36:58.280Z,97698.50
2023-01-17T06:39:24.879Z,97737.66
2023-01-17T06:41:51.269Z,97752.44
2023-01-17T06:44:17.698Z,97747.34
2023-01-17T06:46:45.087Z,97750.81
2023-01-17T06:49:11.596Z,97761.25
2023-01-17T06:51:38.136Z,97753.78
2023-01-17T06:54:04.840Z,97777.56
2023-01-17T06:56:32.552Z,97778.75
2023-01-17T06:58:59.502Z,97783.38
2023-01-17T07:01:26.193Z,97792.53
2023-01-17T07:03:52.798Z,97779.91
2023-01-17T07:06:19.494Z,97769.16
2023-01-17T07:08:47.421Z,97803.09
2023-01-17T07:11:14.254Z,97807.53
2023-01-17T07:13:41.306Z,97813.66
2023-01-17T07:16:08.490Z,97809.53
2023-01-17T07:18:35.095Z,97814.41
2023-01-17T07:21:01.499Z,97821.94
2023-01-17T07:23:27.936Z,97816.88
2023-01-17T07:25:57.090Z,97825.75
2023-01-17T07:28:24.937Z,97821.97
2023-01-17T07:30:51.719Z,97834.50
2023-01-17T07:33:18.710Z,97848.16
2023-01-17T07:35:45.951Z,97826.00
2023-01-17T07:38:18.485Z,97862.00
2023-01-17T07:40:45.642Z,97857.75
2023-01-17T07:43:15.549Z,97849.78
2023-01-17T07:45:50.704Z,97862.38
2023-01-17T07:48:23.507Z,97893.81
2023-01-17T07:50:54.870Z,97885.59
2023-01-17T07:53:23.378Z,97905.84
2023-01-17T07:55:49.778Z,97910.97
2023-01-17T07:58:16.284Z,97931.75
2023-01-17T08:00:44.765Z,97930.13
2023-01-17T08:03:13.694Z,97949.59
2023-01-17T08:05:41.755Z,97950.13
2023-01-17T08:08:08.277Z,97972.25
2023-01-17T08:10:34.836Z,97954.28
2023-01-17T08:13:01.276Z,97952.19
2023-01-17T08:15:27.755Z,97937.38
2023-01-17T08:17:54.463Z,97937.28
2023-01-17T08:20:21.223Z,97969.88
2023-01-17T08:22:47.636Z,97965.78
2023-01-17T08:25:14.491Z,97965.97
2023-01-17T08:27:40.909Z,97970.22
2023-01-17T08:30:08.422Z,97969.41
2023-01-17T08:32:35.992Z,97975.34
2023-01-17T08:35:02.397Z,97968.97
2023-01-17T08:37:28.755Z,97977.66
2023-01-17T08:39:55.134Z,97985.06
2023-01-17T08:42:21.535Z,97976.00
2023-01-17T08:44:47.941Z,97989.34
2023-01-17T08:47:14.538Z,98000.84
2023-01-17T08:49:40.992Z,98010.91
2023-01-17T08:52:07.653Z,98005.28
2023-01-17T08:54:34.043Z,98015.13
2023-01-17T08:57:00.591Z,98011.47
2023-01-17T08:59:27.060Z,98011.97
2023-01-17T09:01:55.327Z,98033.44
2023-01-17T09:04:21.846Z,98029.63
2023-01-17T09:06:48.738Z,98028.34
2023-01-17T09:09:16.596Z,98017.19
2023-01-17T09:11:43.115Z,98026.25
2023-01-17T09:14:12.375Z,98011.59
2023-01-17T09:16:38.893Z,98030.16
2023-01-17T09:19:05.399Z,98040.56
2023-01-17T09:21:31.962Z,98051.44
2023-01-17T09:23:58.544Z,98045.81
2023-01-17T09:26:27.648Z,98058.03
2023-01-17T09:28:54.826Z,98072.88
2023-01-17T09:31:23.363Z,98073.81
2023-01-17T09:33:51.422Z,98071.34
2023-01-17T09:36:18.487Z,98088.75
2023-01-17T09:38:45.213Z,98087.13
2023-01-17T09:41:29.737Z,98100.69
2023-01-17T09:43:59.128Z,98095.13
2023-01-17T09:46:30.649Z,98100.47
2023-01-17T09:49:07.316Z,98074.13
2023-01-17T09:51:34.006Z,98095.75
2023-01-17T09:54:02.313Z,98107.31
2023-01-17T09:56:37.340Z,98093.47
2023-01-17T09:59:19.028Z,98100.25
2023-01-17T10:02:05.168Z,98106.69
2023-01-17T10:05:03.770Z,98103.88
2023-01-17T10:08:04.687Z,98109.16
2023-01-17T10:10:40.031Z,98107.50
2023-01-17T10:13:28.489Z,98095.91
2023-01-17T10:16:32.437Z,98110.31
2023-01-17T10:19:24.042Z,98112.38
2023-01-17T10:22:07.489Z,98115.75
2023-01-17T10:25:00.753Z,98114.78
2023-01-17T10:28:05.297Z,98117.28
2023-01-17T10:30:36.518Z,98132.06
2023-01-17T10:33:14.222Z,98125.03
2023-01-17T10:35:51.125Z,98137.31
2023-01-17T10:38:19.582Z,98107.63
2023-01-17T10:40:54.800Z,98124.28
2023-01-17T10:43:44.252Z,98142.66
2023-01-17T10:46:30.448Z,98125.09
2023-01-17T10:48:57.287Z,98128.69
2023-01-17T10:51:51.435Z,98139.28
2023-01-17T10:54:31.584Z,98135.47
2023-01-17T10:56:58.807Z,98156.19
2023-01-17T10:59:33.704Z,98155.19
2023-01-17T11:02:06.819Z,98173.06
2023-01-17T11:04:42.222Z,98175.00
2023-01-17T11:07:21.352Z,98166.44
2023-01-17T11:09:50.278Z,98183.56
2023-01-17T11:12:27.070Z,98169.78
2023-01-17T11:15:13.729Z,98182.50
2023-01-17T11:17:53.112Z,98180.56
2023-01-17T11:20:39.837Z,98179.75
2023-01-17T11:23:31.288Z,98194.59
2023-01-17T11:26:02.659Z,98201.38
2023-01-17T11:28:34.376Z,98188.81
2023-01-17T11:31:04.129Z,98189.28
2023-01-17T11:33:47.659Z,98184.88
2023-01-17T11:36:27.463Z,98182.78
2023-01-17T11:39:13.515Z,98166.88
2023-01-17T11:41:41.565Z,98177.69
2023-01-17T11:44:27.736Z,98186.00
2023-01-17T11:47:12.412Z,98185.69
2023-01-17T11:49:46.595Z,98187.06
2023-01-17T11:52:33.000Z,98185.34
2023-01-17T11:54:59.818Z,98187.03
2023-01-17T11:57:29.649Z,98213.56
2023-01-17T12:00:19.393Z,98220.16
2023-01-17T12:03:15.057Z,98226.84
2023-01-17T12:05:53.664Z,98222.41
2023-01-17T12:08:38.506Z,98219.97
2023-01-17T12:12:11.149Z,98225.94
2023-01-17T12:14:44.047Z,98207.38
2023-01-17T12:17:32.327Z,98227.59
2023-01-17T12:20:01.435Z,98216.97
2023-01-17T12:22:35.176Z,98223.22
2023-01-17T12:25:16.604Z,98226.22
2023-01-17T12:27:57.976Z,98227.41
2023-01-17T12:30:53.880Z,98231.06
2023-01-17T12:33:37.703Z,98227.88
2023-01-17T12:36:19.871Z,98226.94
2023-01-17T12:38:48.747Z,98229.06
2023-01-17T12:41:26.456Z,98227.06
2023-01-17T12:43:58.857Z,98230.06
2023-01-17T12:46:38.565Z,98223.00
2023-01-17T12:49:19.338Z,98209.38
2023-01-17T12:51:50.094Z,98228.22
2023-01-17T12:54:41.790Z,98232.78
2023-01-17T12:57:14.809Z,98251.13
2023-01-17T13:00:02.761Z,98244.41
2023-01-17T13:02:51.212Z,98252.09
2023-01-17T13:05:23.622Z,98257.84
2023-01-17T13:08:08.634Z,98257.78
2023-01-17T13:11:20.145Z,98269.41
2023-01-17T13:13:50.607Z,98263.28
2023-01-17T13:16:44.608Z,98263.41
2023-01-17T13:19:32.504Z,98261.34
2023-01-17T13:22:00.804Z,98262.94
2023-01-17T13:24:31.608Z,98262.00
2023-01-17T13:27:19.454Z,98259.19
2023-01-17T13:30:19.846Z,98261.75
2023-01-17T13:33:12.902Z,98263.81
2023-01-17T13:35:45.979Z,98262.94
2023-01-17T13:38:29.379Z,98268.06
2023-01-17T13:41:28.063Z,98272.16
2023-01-17T13:44:13.527Z,98268.97
2023-01-17T13:47:04.184Z,98293.88
2023-01-17T13:49:31.559Z,98290.41
2023-01-17T13:52:19.434Z,98300.19
2023-01-17T13:55:15.027Z,98303.66
2023-01-17T13:57:46.120Z,98307.81
2023-01-17T14:00:16.348Z,98302.31
2023-01-17T14:02:43.706Z,98307.16
2023-01-17T14:05:22.928Z,98300.53
2023-01-17T14:07:52.341Z,98301.38
2023-01-17T14:10:34.674Z,98301.28
2023-01-17T14:13:01.940Z,98316.06
2023-01-17T14:15:32.167Z,98311.28
2023-01-17T14:17:59.711Z,98310.75
2023-01-17T14:20:26.130Z,98314.47
2023-01-17T14:22:57.452Z,98304.75
2023-01-17T14:25:44.529Z,98314.41
2023-01-17T14:28:29.675Z,98310.75
2023-01-17T14:30:59.103Z,98315.06
2023-01-17T14:33:36.148Z,98317.38
2023-01-17T14:36:21.948Z,98318.50
2023-01-17T14:38:48.363Z,98304.31
2023-01-17T14:41:22.628Z,98324.16
2023-01-17T14:43:50.573Z,98328.22
2023-01-17T14:46:32.834Z,98332.53
2023-01-17T14:49:21.111Z,98348.50
2023-01-17T14:52:06.233Z,98343.22
2023-01-17T14:54:33.299Z,98354.94
2023-01-17T14:57:21.080Z,98360.56
2023-01-17T14:59:47.493Z,98344.19
2023-01-17T15:02:18.449Z,98354.28
2023-01-17T15:04:52.855Z,98363.41
2023-01-17T15:07:20.386Z,98352.06
2023-01-17T15:09:47.068Z,98359.34
2023-01-17T15:12:14.606Z,98338.41
2023-01-17T15:14:45.060Z,98362.38
2023-01-17T15:17:19.160Z,98374.31
2023-01-17T15:19:49.468Z,98371.38
2023-01-17T15:22:18.528Z,98370.38
2023-01-17T15:24:46.883Z,98355.94
2023-01-17T15:27:15.378Z,98366.63
2023-01-17T15:29:43.089Z,98365.03
2023-01-17T15:32:23.996Z,98368.66
2023-01-17T15:34:51.729Z,98382.75
2023-01-17T15:37:32.747Z,98385.88
2023-01-17T15:40:04.207Z,98382.44
2023-01-17T15:42:31.761Z,98368.25
2023-01-17T15:45:01.774Z,98383.78
2023-01-17T15:47:32.840Z,98392.56
2023-01-17T15:50:00.886Z,98397.00
2023-01-17T15:52:28.093Z,98386.94
2023-01-17T15:55:11.396Z,98375.22
2023-01-17T15:57:38.847Z,98365.28
2023-01-17T16:00:08.621Z,98367.09
2023-01-17T16:02:37.258Z,98350.41
2023-01-17T16:05:31.028Z,98384.59
2023-01-17T16:08:04.588Z,98313.94
2023-01-17T16:10:35.767Z,98390.06
2023-01-17T16:13:06.399Z,98392.19
2023-01-17T16:15:35.304Z,98333.06
2023-01-17T16:18:03.918Z,98417.66
2023-01-17T16:20:42.833Z,98416.97
2023-01-17T16:23:12.337Z,98382.44
2023-01-17T16:25:39.017Z,98399.13
2023-01-17T16:28:06.127Z,98413.47
2023-01-17T16:30:33.407Z,98425.03
2023-01-17T16:32:59.989Z,98422.72
2023-01-17T16:35:29.399Z,98421.22
2023-01-17T16:38:02.105Z,98435.44
2023-01-17T16:40:31.944Z,98412.09
2023-01-17T16:42:59.867Z,98437.38
2023-01-17T16:45:26.793Z,98450.09
2023-01-17T16:47:54.563Z,98440.78
2023-01-17T16:50:24.078Z,98447.41
2023-01-17T16:52:52.021Z,98452.84
2023-01-17T16:55:21.943Z,98429.38
2023-01-17T16:57:49.525Z,98454.13
2023-01-17T17:00:16.589Z,98464.84
2023-01-17T17:02:43.218Z,98462.03
2023-01-17T17:05:10.553Z,98461.34
2023-01-17T17:07:42.814Z,98466.13
2023-01-17T17:10:10.568Z,98470.56
2023-01-17T17:12:36.941Z,98467.41
2023-01-17T17:15:03.917Z,98469.53
2023-01-17T17:17:30.280Z,98470.19
2023-01-17T17:19:56.649Z,98484.53
2023-01-17T17:22:23.057Z,98476.88
2023-01-17T17:24:49.624Z,98489.78
2023-01-17T17:27:16.015Z,98485.78
2023-01-17T17:29:42.501Z,98497.84
2023-01-17T17:32:11.474Z,98498.00
2023-01-17T17:34:38.638Z,98500.78
2023-01-17T17:37:05.095Z,98507.19
2023-01-17T17:39:31.941Z,98501.28
2023-01-17T17:41:58.679Z,98506.22
2023-01-17T17:44:25.112Z,98502.25
2023-01-17T17:46:51.792Z,98512.81
2023-01-17T17:49:18.242Z,98510.31
2023-01-17T17:51:48.047Z,98490.47
2023-01-17T17:54:15.772Z,98513.41
2023-01-17T17:56:49.363Z,98511.19
2023-01-17T17:59:18.362Z,98513.81
2023-01-17T18:01:45.617Z,98521.94
2023-01-17T18:04:14.979Z,98523.25
2023-01-17T18:06:41.733Z,98519.69
2023-01-17T18:09:09.884Z,98517.22
2023-01-17T18:11:38.160Z,98532.69
2023-01-17T18:14:06.591Z,98543.91
2023-01-17T18:16:41.843Z,98545.88
2023-01-17T18:19:21.232Z,98543.56
2023-01-17T18:21:49.264Z,98554.13
2023-01-17T18:24:17.515Z,98542.56
2023-01-17T18:26:48.374Z,98555.94
2023-01-17T18:29:16.496Z,98533.38
2023-01-17T18:31:44.106Z,98552.19
2023-01-17T18:34:16.062Z,98552.88
2023-01-17T18:36:43.173Z,98565.06
2023-01-17T18:39:15.587Z,98562.81
2023-01-17T18:41:42.729Z,98549.25
2023-01-17T18:44:10.250Z,98560.78
2023-01-17T18:46:37.492Z,98562.06
2023-01-17T18:49:04.774Z,98571.47
2023-01-17T18:51:33.310Z,98543.31
2023-01-17T18:54:04.847Z,98572.75
2023-01-17T18:56:34.138Z,98577.06
2023-01-17T18:59:01.802Z,98572.38
2023-01-17T19:01:30.541Z,98571.94
2023-01-17T19:03:59.722Z,98571.69
2023-01-17T19:06:32.110Z,98576.66
2023-01-17T19:08:59.089Z,98572.66
2023-01-17T19:11:26.555Z,98576.53
2023-01-17T19:13:53.720Z,98552.34
2023-01-17T19:16:30.258Z,98582.31
2023-01-17T19:19:01.546Z,98574.72
2023-01-17T19:21:28.744Z,98584.44
2023-01-17T19:23:56.628Z,98587.06
2023-01-17T19:26:25.117Z,98584.88
2023-01-17T19:28:51.806Z,98587.94
2023-01-17T19:31:23.709Z,98574.72
2023-01-17T19:33:52.149Z,98593.53
2023-01-17T19:36:23.346Z,98591.56
2023-01-17T19:39:03.515Z,98598.19
2023-01-17T19:41:31.808Z,98595.03
2023-01-17T19:44:06.302Z,98591.41
2023-01-17T19:46:33.584Z,98606.25
2023-01-17T19:49:00.090Z,98607.56
2023-01-17T19:51:28.410Z,98599.69
2023-01-17T19:53:55.745Z,98596.06
2023-01-17T19:56:24.872Z,98609.41
2023-01-17T19:58:52.376Z,98588.25
2023-01-17T20:01:22.195Z,98594.19
2023-01-17T20:03:49.749Z,98592.53
2023-01-17T20:06:20.274Z,98583.84
2023-01-17T20:08:46.691Z,98602.09
2023-01-17T20:11:15.814Z,98596.44
2023-01-17T20:13:42.418Z,98595.06
2023-01-17T20:16:11.530Z,98596.72
2023-01-17T20:18:38.556Z,98579.88
2023-01-17T20:21:10.830Z,98609.47
2023-01-17T20:23:39.153Z,98607.94
2023-01-17T20:26:06.221Z,98610.19
2023-01-17T20:28:34.282Z,98611.91
2023-01-17T20:31:14.865Z,98615.53
2023-01-17T20:33:43.161Z,98586.28
2023-01-17T20:36:12.595Z,98612.34
2023-01-17T20:38:45.595Z,98608.66
2023-01-17T20:41:18.028Z,98608.19
2023-01-17T20:43:47.483Z,98613.78
2023-01-17T20:46:14.858Z,98622.50
2023-01-17T20:48:52.033Z,98624.31
2023-01-17T20:51:19.588Z,98616.00
2023-01-17T20:53:50.499Z,98616.69
2023-01-17T20:56:18.001Z,98623.63
2023-01-17T20:58:45.129Z,98612.94
2023-01-17T21:01:19.039Z,98618.50
2023-01-17T21:03:47.851Z,98620.44
2023-01-17T21:06:14.999Z,98628.78
2023-01-17T21:08:43.794Z,98619.06
2023-01-17T21:11:12.589Z,98616.72
2023-01-17T21:13:40.061Z,98619.66
2023-01-17T21:16:09.291Z,98619.66
2023-01-17T21:18:36.508Z,98622.59
2023-01-17T21:21:08.818Z,98631.84
2023-01-17T21:23:36.530Z,98620.63
2023-01-17T21:26:07.224Z,98628.69
2023-01-17T21:28:37.191Z,98636.72
2023-01-17T21:31:36.757Z,98634.63
2023-01-17T21:34:05.839Z,98632.56
2023-01-17T21:36:36.905Z,98621.94
2023-01-17T21:39:07.067Z,98617.53
2023-01-17T21:41:37.020Z,98645.31
2023-01-17T21:44:11.756Z,98647.94
2023-01-17T21:46:39.675Z,98658.78
2023-01-17T21:49:08.671Z,98650.34
2023-01-17T21:51:53.105Z,98654.09
2023-01-17T21:54:44.696Z,98648.56
2023-01-17T21:57:31.776Z,98661.44
2023-01-17T21:59:58.392Z,98653.72
2023-01-17T22:02:24.898Z,98655.91
2023-01-17T22:04:51.494Z,98680.03
2023-01-17T22:07:17.926Z,98654.44
2023-01-17T22:09:44.303Z,98681.16
2023-01-17T22:12:10.696Z,98678.94
2023-01-17T22:14:38.968Z,98688.19
2023-01-17T22:17:05.384Z,98668.56
2023-01-17T22:19:33.594Z,98705.09
2023-01-17T22:21:59.991Z,98684.06
2023-01-17T22:24:26.971Z,98705.38
2023-01-17T22:26:53.376Z,98702.47
2023-01-17T22:29:20.455Z,98673.28
2023-01-17T22:31:47.131Z,98714.66
2023-01-17T22:34:15.346Z,98716.19
2023-01-17T22:36:41.952Z,98709.94
2023-01-17T22:39:09.935Z,98722.53
2023-01-17T22:41:38.513Z,98722.53
2023-01-17T22:44:05.516Z,98718.53
2023-01-17T22:46:35.809Z,98719.34
2023-01-17T22:49:02.544Z,98713.13
2023-01-17T22:51:29.238Z,98717.97
2023-01-17T22:53:58.310Z,98725.03
2023-01-17T22:56:30.971Z,98694.84
2023-01-17T22:59:01.393Z,98710.91
2023-01-17T23:01:29.972Z,98719.09
2023-01-17T23:04:02.225Z,98725.72
2023-01-17T23:06:37.007Z,98728.06
2023-01-17T23:09:10.578Z,98728.34
2023-01-17T23:11:49.792Z,98731.41
2023-01-17T23:14:53.936Z,98723.78
2023-01-17T23:17:41.383Z,98732.78
2023-01-17T23:20:09.589Z,98734.72
2023-01-17T23:22:36.538Z,98736.09
2023-01-17T23:25:07.382Z,98743.16
2023-01-17T23:28:05.577Z,98736.25
2023-01-17T23:30:40.892Z,98744.41
2023-01-17T23:33:15.315Z,98744.41
2023-01-17T23:35:44.109Z,98727.81
2023-01-17T23:38:30.906Z,98755.47
2023-01-17T23:41:26.942Z,98732.34
2023-01-17T23:43:55.377Z,98757.56
2023-01-17T23:46:22.525Z,98748.56
2023-01-17T23:48:48.968Z,98764.22
2023-01-17T23:51:15.896Z,98766.00
2023-01-17T23:53:42.705Z,98755.09
2023-01-17T23:56:26.567Z,98743.31
2023-01-17T23:58:53.056Z,98747.75
